EGPL

Benbecula Airport

Balivanich, United Kingdom
METAR EGPL 232220Z AUTO 16027KT 9999 BKN028/// BKN033/// 05/00 Q1014
Observed Flight Rules
Feb-23 @ 22:20 UTC (17 minutes ago) Marginal Visual Flight Rules
Wind Visibility Clouds
160° at 27 knots 10,000+ meters
  • Broken at 2,800' AGL
  • Broken at 3,300' AGL
Temperatures Readings
Current 5°C / 41°F
Dewpoint 0°C / 32°F
Humidity 70%
Altimeter 29.94" Hg
Pressure 1014 hPa
Elevation 6
METAR EGPL 232220Z AUTO 16027KT 9999 BKN028/// BKN033/// 05/00 Q1014
Observed Flight Rules
Feb-23 @ 22:20 UTC
(17 minutes ago)
MVFR
Wind Visibility
160° at 27 knots 10,000+ meters
Clouds
  • Broken at 2,800' AGL
  • Broken at 3,300' AGL
Temperature Dewpoint
5°C / 41°F 0°C / 32°F
Humidity Altimeter Pressure
70% 29.94" Hg 1014 hPa